CXBCK SUMO-SUPE
Flight info
| Callsign | CXBCK |
|---|---|
| Flight time | 1h 35m |
| Altitude | 4500 |
| Route | DCT SUTR DCT RUTA 8 DCT AIGUA DCT RUTA 39 DCT SAN CARLOS DCT |
| Aircraft | C172/L-SFG/C |
Departure
| Time | 2026-05-05 20:14 |
|---|---|
| Airport | Cerro Largo International Airport (SUMO) |
Arrival
| Time | 2026-05-05 21:49 |
|---|---|
| Airport | El Jagüel / Punta del Este Airport (SUPE) |
| Time | Latitude | Longitude | Altitude | Speed | Heading |
|---|---|---|---|---|---|
| 2026-05-05 20:02 | -32.33925 | -54.22365 | 370 ft | 0 kts | 63° |
| 2026-05-05 20:11 | -32.33909 | -54.22336 | 370 ft | 10 kts | 62° |
| 2026-05-05 20:11 | -32.33936 | -54.22247 | 370 ft | 15 kts | 149° |
| 2026-05-05 20:11 | -32.34031 | -54.22194 | 370 ft | 16 kts | 186° |
| 2026-05-05 20:12 | -32.34099 | -54.22294 | 370 ft | 17 kts | 250° |
| 2026-05-05 20:12 | -32.34133 | -54.22356 | 370 ft | 3 kts | 94° |
| 2026-05-05 20:12 | -32.34128 | -54.22341 | 370 ft | 0 kts | 59° |
| 2026-05-05 20:12 | -32.34054 | -54.22199 | 370 ft | 45 kts | 60° |
| 2026-05-05 20:13 | -32.33832 | -54.21768 | 425 ft | 70 kts | 59° |
| 2026-05-05 20:13 | -32.33568 | -54.21224 | 557 ft | 80 kts | 62° |
| 2026-05-05 20:13 | -32.33305 | -54.20636 | 744 ft | 80 kts | 63° |
| 2026-05-05 20:13 | -32.33056 | -54.20044 | 861 ft | 83 kts | 64° |
| 2026-05-05 20:14 | -32.32662 | -54.19593 | 1029 ft | 82 kts | 18° |
| 2026-05-05 20:14 | -32.32110 | -54.19626 | 1190 ft | 78 kts | 331° |
| 2026-05-05 20:14 | -32.31772 | -54.20088 | 1323 ft | 76 kts | 283° |
| 2026-05-05 20:14 | -32.31950 | -54.20662 | 1445 ft | 81 kts | 226° |
| 2026-05-05 20:15 | -32.32487 | -54.20915 | 1590 ft | 87 kts | 193° |
| 2026-05-05 20:15 | -32.33134 | -54.20974 | 1662 ft | 98 kts | 179° |
| 2026-05-05 20:15 | -32.33768 | -54.20816 | 1843 ft | 92 kts | 168° |
| 2026-05-05 20:15 | -32.34422 | -54.20616 | 1851 ft | 105 kts | 171° |
| 2026-05-05 20:16 | -32.35165 | -54.20422 | 1869 ft | 110 kts | 170° |
| 2026-05-05 20:16 | -32.35896 | -54.20230 | 1998 ft | 105 kts | 170° |
| 2026-05-05 20:16 | -32.36595 | -54.20043 | 2113 ft | 102 kts | 170° |
| 2026-05-05 20:16 | -32.37271 | -54.19811 | 2227 ft | 100 kts | 168° |
| 2026-05-05 20:17 | -32.37930 | -54.19572 | 2345 ft | 98 kts | 165° |
| 2026-05-05 20:17 | -32.38576 | -54.19324 | 2461 ft | 97 kts | 165° |
| 2026-05-05 20:17 | -32.39203 | -54.19076 | 2578 ft | 95 kts | 165° |
| 2026-05-05 20:17 | -32.39822 | -54.18821 | 2697 ft | 93 kts | 165° |
| 2026-05-05 20:18 | -32.40426 | -54.18565 | 2811 ft | 91 kts | 165° |
| 2026-05-05 20:18 | -32.41011 | -54.18313 | 2924 ft | 88 kts | 165° |
| 2026-05-05 20:18 | -32.41583 | -54.18064 | 3037 ft | 87 kts | 165° |
| 2026-05-05 20:18 | -32.42156 | -54.17811 | 3155 ft | 88 kts | 165° |
| 2026-05-05 20:19 | -32.42731 | -54.17554 | 3277 ft | 88 kts | 165° |
| 2026-05-05 20:19 | -32.43318 | -54.17294 | 3316 ft | 98 kts | 166° |
| 2026-05-05 20:19 | -32.44014 | -54.17001 | 3241 ft | 113 kts | 165° |
| 2026-05-05 20:19 | -32.44793 | -54.16681 | 3172 ft | 123 kts | 165° |
| 2026-05-05 20:20 | -32.45616 | -54.16349 | 3098 ft | 126 kts | 165° |
| 2026-05-05 20:20 | -32.46453 | -54.16015 | 3009 ft | 127 kts | 165° |
| 2026-05-05 20:20 | -32.47297 | -54.15683 | 2920 ft | 128 kts | 165° |
| 2026-05-05 20:20 | -32.48146 | -54.15354 | 2823 ft | 128 kts | 165° |
| 2026-05-05 20:21 | -32.48987 | -54.15040 | 2729 ft | 126 kts | 165° |
| 2026-05-05 20:21 | -32.49819 | -54.14733 | 2635 ft | 125 kts | 165° |
| 2026-05-05 20:21 | -32.50649 | -54.14422 | 2537 ft | 125 kts | 165° |
| 2026-05-05 20:21 | -32.51456 | -54.14125 | 2505 ft | 116 kts | 172° |
| 2026-05-05 20:22 | -32.52225 | -54.14135 | 2493 ft | 107 kts | 193° |
| 2026-05-05 20:22 | -32.52946 | -54.14255 | 2490 ft | 103 kts | 198° |
| 2026-05-05 20:22 | -32.53615 | -54.14532 | 2496 ft | 103 kts | 207° |
| 2026-05-05 20:22 | -32.54282 | -54.14869 | 2495 ft | 105 kts | 212° |
| 2026-05-05 20:23 | -32.54937 | -54.15234 | 2495 ft | 104 kts | 211° |
| 2026-05-05 20:23 | -32.55590 | -54.15592 | 2497 ft | 103 kts | 211° |
| 2026-05-05 20:23 | -32.56245 | -54.15953 | 2501 ft | 105 kts | 211° |
| 2026-05-05 20:23 | -32.56912 | -54.16332 | 2503 ft | 107 kts | 211° |
| 2026-05-05 20:24 | -32.57586 | -54.16715 | 2499 ft | 107 kts | 212° |
| 2026-05-05 20:24 | -32.58252 | -54.17081 | 2500 ft | 104 kts | 211° |
| 2026-05-05 20:24 | -32.58912 | -54.17438 | 2503 ft | 105 kts | 211° |
| 2026-05-05 20:24 | -32.59582 | -54.17804 | 2502 ft | 107 kts | 211° |
| 2026-05-05 20:25 | -32.60264 | -54.18185 | 2510 ft | 108 kts | 211° |
| 2026-05-05 20:25 | -32.60881 | -54.18665 | 2501 ft | 106 kts | 221° |
| 2026-05-05 20:25 | -32.61498 | -54.19149 | 2509 ft | 107 kts | 214° |
| 2026-05-05 20:25 | -32.62155 | -54.19555 | 2507 ft | 106 kts | 214° |
| 2026-05-05 20:26 | -32.62805 | -54.19954 | 2510 ft | 105 kts | 213° |
| 2026-05-05 20:26 | -32.63451 | -54.20360 | 2506 ft | 104 kts | 214° |
| 2026-05-05 20:26 | -32.64089 | -54.20749 | 2506 ft | 104 kts | 213° |
| 2026-05-05 20:26 | -32.64741 | -54.21147 | 2506 ft | 104 kts | 213° |
| 2026-05-05 20:27 | -32.65374 | -54.21538 | 2507 ft | 104 kts | 213° |
| 2026-05-05 20:27 | -32.66014 | -54.21940 | 2508 ft | 104 kts | 213° |
| 2026-05-05 20:27 | -32.66658 | -54.22342 | 2509 ft | 105 kts | 213° |
| 2026-05-05 20:27 | -32.67310 | -54.22747 | 2510 ft | 107 kts | 213° |
| 2026-05-05 20:28 | -32.67969 | -54.23169 | 2514 ft | 109 kts | 213° |
| 2026-05-05 20:28 | -32.68633 | -54.23610 | 2509 ft | 108 kts | 213° |
| 2026-05-05 20:28 | -32.69281 | -54.24046 | 2512 ft | 107 kts | 213° |
| 2026-05-05 20:28 | -32.69933 | -54.24466 | 2512 ft | 106 kts | 213° |
| 2026-05-05 20:29 | -32.70590 | -54.24881 | 2504 ft | 108 kts | 213° |
| 2026-05-05 20:29 | -32.71255 | -54.25276 | 2507 ft | 107 kts | 206° |
| 2026-05-05 20:29 | -32.71981 | -54.25516 | 2505 ft | 110 kts | 197° |
| 2026-05-05 20:29 | -32.72724 | -54.25675 | 2501 ft | 108 kts | 195° |
| 2026-05-05 20:30 | -32.73468 | -54.25833 | 2503 ft | 110 kts | 195° |
| 2026-05-05 20:30 | -32.74228 | -54.25995 | 2509 ft | 111 kts | 195° |
| 2026-05-05 20:30 | -32.74991 | -54.26160 | 2503 ft | 111 kts | 195° |
| 2026-05-05 20:30 | -32.75748 | -54.26320 | 2507 ft | 110 kts | 195° |
| 2026-05-05 20:31 | -32.76502 | -54.26479 | 2507 ft | 110 kts | 195° |
| 2026-05-05 20:31 | -32.77254 | -54.26638 | 2498 ft | 110 kts | 195° |
| 2026-05-05 20:31 | -32.77990 | -54.26791 | 2490 ft | 105 kts | 195° |
| 2026-05-05 20:31 | -32.78697 | -54.26937 | 2493 ft | 103 kts | 195° |
| 2026-05-05 20:32 | -32.79409 | -54.27084 | 2496 ft | 104 kts | 195° |
| 2026-05-05 20:32 | -32.80116 | -54.27227 | 2503 ft | 103 kts | 195° |
| 2026-05-05 20:32 | -32.80829 | -54.27365 | 2500 ft | 104 kts | 195° |
| 2026-05-05 20:32 | -32.81542 | -54.27499 | 2498 ft | 103 kts | 195° |
| 2026-05-05 20:33 | -32.82248 | -54.27629 | 2495 ft | 103 kts | 195° |
| 2026-05-05 20:33 | -32.82959 | -54.27763 | 2499 ft | 104 kts | 195° |
| 2026-05-05 20:33 | -32.83671 | -54.27906 | 2493 ft | 104 kts | 195° |
| 2026-05-05 20:33 | -32.84380 | -54.28052 | 2499 ft | 103 kts | 195° |
| 2026-05-05 20:34 | -32.85099 | -54.28200 | 2499 ft | 106 kts | 195° |
| 2026-05-05 20:34 | -32.85832 | -54.28347 | 2505 ft | 108 kts | 195° |
| 2026-05-05 20:34 | -32.86566 | -54.28489 | 2510 ft | 107 kts | 195° |
| 2026-05-05 20:34 | -32.87310 | -54.28630 | 2507 ft | 109 kts | 195° |
| 2026-05-05 20:35 | -32.88046 | -54.28770 | 2497 ft | 106 kts | 195° |
| 2026-05-05 20:35 | -32.88775 | -54.28916 | 2506 ft | 107 kts | 195° |
| 2026-05-05 20:35 | -32.89512 | -54.29063 | 2504 ft | 108 kts | 195° |
| 2026-05-05 20:35 | -32.90249 | -54.29213 | 2498 ft | 108 kts | 196° |
| 2026-05-05 20:36 | -32.90999 | -54.29363 | 2506 ft | 109 kts | 199° |
| 2026-05-05 20:36 | -32.91736 | -54.29592 | 2505 ft | 110 kts | 201° |
| 2026-05-05 20:36 | -32.92468 | -54.29824 | 2509 ft | 111 kts | 201° |
| 2026-05-05 20:36 | -32.93215 | -54.30071 | 2504 ft | 112 kts | 201° |
| 2026-05-05 20:37 | -32.93955 | -54.30313 | 2506 ft | 109 kts | 201° |
| 2026-05-05 20:37 | -32.94442 | -54.30489 | 2507 ft | 108 kts | 206° |
| 2026-05-05 20:37 | -32.95389 | -54.30870 | 2508 ft | 108 kts | 206° |
| 2026-05-05 20:37 | -32.96100 | -54.31159 | 2499 ft | 108 kts | 206° |
| 2026-05-05 20:38 | -32.96815 | -54.31451 | 2503 ft | 110 kts | 205° |
| 2026-05-05 20:38 | -32.97530 | -54.31754 | 2504 ft | 108 kts | 206° |
| 2026-05-05 20:38 | -32.98240 | -54.32053 | 2506 ft | 109 kts | 206° |
| 2026-05-05 20:38 | -32.98961 | -54.32345 | 2505 ft | 110 kts | 205° |
| 2026-05-05 20:39 | -32.99679 | -54.32641 | 2497 ft | 109 kts | 206° |
| 2026-05-05 20:39 | -33.00402 | -54.32936 | 2503 ft | 110 kts | 206° |
| 2026-05-05 20:39 | -33.01122 | -54.33231 | 2502 ft | 109 kts | 205° |
| 2026-05-05 20:39 | -33.01830 | -54.33524 | 2497 ft | 107 kts | 205° |
| 2026-05-05 20:40 | -33.02549 | -54.33763 | 2500 ft | 107 kts | 201° |
| 2026-05-05 20:40 | -33.03260 | -54.33991 | 2493 ft | 105 kts | 201° |
| 2026-05-05 20:40 | -33.03963 | -54.34218 | 2494 ft | 105 kts | 201° |
| 2026-05-05 20:40 | -33.04678 | -54.34452 | 2494 ft | 108 kts | 201° |
| 2026-05-05 20:41 | -33.05404 | -54.34698 | 2497 ft | 109 kts | 201° |
| 2026-05-05 20:41 | -33.06141 | -54.34952 | 2506 ft | 111 kts | 202° |
| 2026-05-05 20:41 | -33.06886 | -54.35208 | 2503 ft | 111 kts | 201° |
| 2026-05-05 20:41 | -33.07619 | -54.35456 | 2506 ft | 111 kts | 201° |
| 2026-05-05 20:42 | -33.08365 | -54.35713 | 2502 ft | 111 kts | 201° |
| 2026-05-05 20:42 | -33.09106 | -54.35972 | 2501 ft | 111 kts | 201° |
| 2026-05-05 20:42 | -33.09847 | -54.36235 | 2502 ft | 111 kts | 202° |
| 2026-05-05 20:42 | -33.10581 | -54.36489 | 2497 ft | 109 kts | 201° |
| 2026-05-05 20:43 | -33.11308 | -54.36743 | 2499 ft | 109 kts | 202° |
| 2026-05-05 20:43 | -33.12062 | -54.36927 | 2497 ft | 112 kts | 187° |
| 2026-05-05 20:43 | -33.12832 | -54.36955 | 2505 ft | 113 kts | 187° |
| 2026-05-05 20:43 | -33.13622 | -54.36993 | 2506 ft | 114 kts | 187° |
| 2026-05-05 20:44 | -33.14161 | -54.37014 | 2503 ft | 114 kts | 187° |
| 2026-05-05 20:44 | -33.15204 | -54.37044 | 2504 ft | 112 kts | 184° |
| 2026-05-05 20:44 | -33.15981 | -54.37030 | 2497 ft | 111 kts | 184° |
| 2026-05-05 20:44 | -33.16752 | -54.37014 | 2502 ft | 111 kts | 184° |
| 2026-05-05 20:45 | -33.18043 | -54.36989 | 2498 ft | 111 kts | 184° |
| 2026-05-05 20:45 | -33.18818 | -54.36986 | 2497 ft | 112 kts | 184° |
| 2026-05-05 20:45 | -33.19603 | -54.36987 | 2500 ft | 113 kts | 184° |
| 2026-05-05 20:46 | -33.20391 | -54.36994 | 2504 ft | 113 kts | 184° |
| 2026-05-05 20:46 | -33.21176 | -54.37004 | 2502 ft | 112 kts | 186° |
| 2026-05-05 20:46 | -33.21921 | -54.37190 | 2502 ft | 110 kts | 203° |
| 2026-05-05 20:46 | -33.22639 | -54.37500 | 2501 ft | 110 kts | 205° |
| 2026-05-05 20:47 | -33.23358 | -54.37812 | 2500 ft | 110 kts | 205° |
| 2026-05-05 20:47 | -33.24074 | -54.38126 | 2500 ft | 110 kts | 205° |
| 2026-05-05 20:47 | -33.24787 | -54.38447 | 2501 ft | 109 kts | 205° |
| 2026-05-05 20:47 | -33.25498 | -54.38761 | 2499 ft | 109 kts | 205° |
| 2026-05-05 20:48 | -33.26209 | -54.39069 | 2495 ft | 109 kts | 204° |
| 2026-05-05 20:48 | -33.26920 | -54.39383 | 2499 ft | 109 kts | 205° |
| 2026-05-05 20:48 | -33.27614 | -54.39736 | 2495 ft | 108 kts | 210° |
| 2026-05-05 20:48 | -33.28292 | -54.40117 | 2495 ft | 108 kts | 210° |
| 2026-05-05 20:49 | -33.28972 | -54.40501 | 2496 ft | 108 kts | 210° |
| 2026-05-05 20:49 | -33.29652 | -54.40884 | 2496 ft | 108 kts | 210° |
| 2026-05-05 20:49 | -33.30333 | -54.41269 | 2496 ft | 109 kts | 210° |
| 2026-05-05 20:49 | -33.31017 | -54.41658 | 2498 ft | 109 kts | 210° |
| 2026-05-05 20:50 | -33.31696 | -54.42042 | 2498 ft | 108 kts | 209° |
| 2026-05-05 20:50 | -33.32369 | -54.42429 | 2497 ft | 107 kts | 210° |
| 2026-05-05 20:50 | -33.33043 | -54.42813 | 2498 ft | 107 kts | 210° |
| 2026-05-05 20:50 | -33.33714 | -54.43191 | 2495 ft | 106 kts | 210° |
| 2026-05-05 20:51 | -33.34378 | -54.43568 | 2497 ft | 105 kts | 210° |
| 2026-05-05 20:51 | -33.35039 | -54.43945 | 2494 ft | 105 kts | 210° |
| 2026-05-05 20:51 | -33.35695 | -54.44317 | 2491 ft | 104 kts | 210° |
| 2026-05-05 20:51 | -33.36351 | -54.44688 | 2496 ft | 105 kts | 210° |
| 2026-05-05 20:52 | -33.37006 | -54.45063 | 2491 ft | 103 kts | 212° |
| 2026-05-05 20:52 | -33.37613 | -54.45515 | 2488 ft | 102 kts | 217° |
| 2026-05-05 20:52 | -33.38217 | -54.45972 | 2492 ft | 103 kts | 217° |
| 2026-05-05 20:52 | -33.38827 | -54.46432 | 2494 ft | 104 kts | 216° |
| 2026-05-05 20:53 | -33.39433 | -54.46899 | 2493 ft | 106 kts | 217° |
| 2026-05-05 20:53 | -33.40063 | -54.47378 | 2494 ft | 106 kts | 216° |
| 2026-05-05 20:53 | -33.40685 | -54.47852 | 2494 ft | 106 kts | 217° |
| 2026-05-05 20:53 | -33.41305 | -54.48328 | 2495 ft | 106 kts | 217° |
| 2026-05-05 20:54 | -33.41927 | -54.48798 | 2498 ft | 106 kts | 217° |
| 2026-05-05 20:54 | -33.42544 | -54.49258 | 2495 ft | 106 kts | 217° |
| 2026-05-05 20:54 | -33.43176 | -54.49725 | 2494 ft | 105 kts | 216° |
| 2026-05-05 20:54 | -33.43792 | -54.50184 | 2495 ft | 105 kts | 216° |
| 2026-05-05 20:55 | -33.44417 | -54.50651 | 2497 ft | 106 kts | 216° |
| 2026-05-05 20:55 | -33.45046 | -54.51121 | 2499 ft | 107 kts | 217° |
| 2026-05-05 20:55 | -33.45676 | -54.51592 | 2497 ft | 107 kts | 217° |
| 2026-05-05 20:55 | -33.46312 | -54.52064 | 2498 ft | 108 kts | 215° |
| 2026-05-05 20:56 | -33.47019 | -54.52383 | 2496 ft | 109 kts | 202° |
| 2026-05-05 20:56 | -33.47738 | -54.52673 | 2497 ft | 109 kts | 202° |
| 2026-05-05 20:56 | -33.48465 | -54.52956 | 2496 ft | 110 kts | 203° |
| 2026-05-05 20:56 | -33.49192 | -54.53235 | 2499 ft | 109 kts | 202° |
| 2026-05-05 20:57 | -33.49913 | -54.53521 | 2498 ft | 109 kts | 202° |
| 2026-05-05 20:57 | -33.50632 | -54.53816 | 2499 ft | 109 kts | 202° |
| 2026-05-05 20:57 | -33.51346 | -54.54109 | 2495 ft | 108 kts | 202° |
| 2026-05-05 20:57 | -33.52059 | -54.54398 | 2490 ft | 108 kts | 203° |
| 2026-05-05 20:58 | -33.52773 | -54.54678 | 2495 ft | 108 kts | 202° |
| 2026-05-05 20:58 | -33.53483 | -54.54961 | 2497 ft | 108 kts | 202° |
| 2026-05-05 20:58 | -33.54196 | -54.55246 | 2493 ft | 108 kts | 202° |
| 2026-05-05 20:58 | -33.54907 | -54.55528 | 2489 ft | 108 kts | 202° |
| 2026-05-05 20:59 | -33.55618 | -54.55814 | 2489 ft | 108 kts | 203° |
| 2026-05-05 20:59 | -33.56334 | -54.56095 | 2494 ft | 109 kts | 202° |
| 2026-05-05 20:59 | -33.57050 | -54.56384 | 2495 ft | 108 kts | 203° |
| 2026-05-05 20:59 | -33.57766 | -54.56669 | 2489 ft | 109 kts | 202° |
| 2026-05-05 21:00 | -33.58483 | -54.56955 | 2489 ft | 108 kts | 202° |
| 2026-05-05 21:00 | -33.59162 | -54.57324 | 2488 ft | 107 kts | 211° |
| 2026-05-05 21:00 | -33.59829 | -54.57719 | 2491 ft | 107 kts | 211° |
| 2026-05-05 21:00 | -33.60496 | -54.58109 | 2488 ft | 107 kts | 211° |
| 2026-05-05 21:01 | -33.61166 | -54.58496 | 2492 ft | 107 kts | 211° |
| 2026-05-05 21:01 | -33.61835 | -54.58884 | 2493 ft | 107 kts | 211° |
| 2026-05-05 21:01 | -33.62510 | -54.59280 | 2497 ft | 109 kts | 211° |
| 2026-05-05 21:01 | -33.63189 | -54.59680 | 2495 ft | 109 kts | 211° |
| 2026-05-05 21:02 | -33.63872 | -54.60075 | 2497 ft | 109 kts | 211° |
| 2026-05-05 21:02 | -33.64550 | -54.60466 | 2497 ft | 108 kts | 210° |
| 2026-05-05 21:02 | -33.65220 | -54.60858 | 2500 ft | 107 kts | 211° |
| 2026-05-05 21:02 | -33.65895 | -54.61255 | 2493 ft | 108 kts | 211° |
| 2026-05-05 21:03 | -33.66570 | -54.61646 | 2493 ft | 108 kts | 211° |
| 2026-05-05 21:03 | -33.67236 | -54.62032 | 2493 ft | 107 kts | 211° |
| 2026-05-05 21:03 | -33.67919 | -54.62428 | 2492 ft | 107 kts | 211° |
| 2026-05-05 21:03 | -33.68588 | -54.62815 | 2488 ft | 107 kts | 211° |
| 2026-05-05 21:04 | -33.69248 | -54.63193 | 2489 ft | 106 kts | 211° |
| 2026-05-05 21:04 | -33.69920 | -54.63578 | 2493 ft | 106 kts | 211° |
| 2026-05-05 21:04 | -33.70587 | -54.63965 | 2491 ft | 107 kts | 211° |
| 2026-05-05 21:04 | -33.71255 | -54.64354 | 2491 ft | 107 kts | 211° |
| 2026-05-05 21:05 | -33.71933 | -54.64726 | 2495 ft | 107 kts | 207° |
| 2026-05-05 21:05 | -33.72623 | -54.65078 | 2494 ft | 108 kts | 207° |
| 2026-05-05 21:05 | -33.73317 | -54.65434 | 2493 ft | 109 kts | 207° |
| 2026-05-05 21:05 | -33.74015 | -54.65791 | 2496 ft | 109 kts | 207° |
| 2026-05-05 21:06 | -33.74702 | -54.66142 | 2493 ft | 109 kts | 207° |
| 2026-05-05 21:06 | -33.75402 | -54.66497 | 2494 ft | 109 kts | 208° |
| 2026-05-05 21:06 | -33.76102 | -54.66854 | 2492 ft | 109 kts | 207° |
| 2026-05-05 21:06 | -33.76806 | -54.67218 | 2494 ft | 111 kts | 208° |
| 2026-05-05 21:07 | -33.77519 | -54.67581 | 2493 ft | 111 kts | 207° |
| 2026-05-05 21:07 | -33.78226 | -54.67939 | 2494 ft | 110 kts | 207° |
| 2026-05-05 21:07 | -33.78928 | -54.68298 | 2497 ft | 110 kts | 207° |
| 2026-05-05 21:07 | -33.79631 | -54.68664 | 2495 ft | 110 kts | 207° |
| 2026-05-05 21:08 | -33.80333 | -54.69030 | 2494 ft | 109 kts | 208° |
| 2026-05-05 21:08 | -33.81031 | -54.69389 | 2492 ft | 109 kts | 208° |
| 2026-05-05 21:08 | -33.81728 | -54.69744 | 2493 ft | 110 kts | 207° |
| 2026-05-05 21:08 | -33.82433 | -54.70105 | 2493 ft | 111 kts | 207° |
| 2026-05-05 21:09 | -33.83142 | -54.70468 | 2491 ft | 111 kts | 206° |
| 2026-05-05 21:09 | -33.83870 | -54.70765 | 2496 ft | 110 kts | 202° |
| 2026-05-05 21:09 | -33.84596 | -54.71050 | 2493 ft | 110 kts | 202° |
| 2026-05-05 21:09 | -33.85320 | -54.71333 | 2494 ft | 109 kts | 202° |
| 2026-05-05 21:10 | -33.86047 | -54.71617 | 2491 ft | 110 kts | 202° |
| 2026-05-05 21:10 | -33.86777 | -54.71900 | 2496 ft | 110 kts | 202° |
| 2026-05-05 21:10 | -33.87505 | -54.72187 | 2493 ft | 110 kts | 202° |
| 2026-05-05 21:10 | -33.88235 | -54.72473 | 2496 ft | 110 kts | 202° |
| 2026-05-05 21:11 | -33.88963 | -54.72763 | 2493 ft | 110 kts | 202° |
| 2026-05-05 21:11 | -33.89693 | -54.73052 | 2493 ft | 111 kts | 202° |
| 2026-05-05 21:11 | -33.90432 | -54.73345 | 2496 ft | 113 kts | 202° |
| 2026-05-05 21:11 | -33.91176 | -54.73640 | 2498 ft | 113 kts | 202° |
| 2026-05-05 21:12 | -33.91916 | -54.73952 | 2496 ft | 112 kts | 202° |
| 2026-05-05 21:12 | -33.92651 | -54.74263 | 2497 ft | 111 kts | 202° |
| 2026-05-05 21:12 | -33.93379 | -54.74570 | 2498 ft | 111 kts | 203° |
| 2026-05-05 21:12 | -33.94111 | -54.74864 | 2498 ft | 112 kts | 202° |
| 2026-05-05 21:13 | -33.94851 | -54.75156 | 2495 ft | 112 kts | 202° |
| 2026-05-05 21:13 | -33.95582 | -54.75451 | 2495 ft | 111 kts | 202° |
| 2026-05-05 21:13 | -33.96312 | -54.75753 | 2496 ft | 111 kts | 202° |
| 2026-05-05 21:13 | -33.97044 | -54.76051 | 2493 ft | 111 kts | 202° |
| 2026-05-05 21:14 | -33.97771 | -54.76342 | 2488 ft | 109 kts | 202° |
| 2026-05-05 21:14 | -33.98489 | -54.76628 | 2490 ft | 108 kts | 202° |
| 2026-05-05 21:14 | -33.99212 | -54.76887 | 2489 ft | 108 kts | 196° |
| 2026-05-05 21:14 | -33.99945 | -54.77087 | 2492 ft | 109 kts | 197° |
| 2026-05-05 21:15 | -34.00679 | -54.77288 | 2490 ft | 110 kts | 197° |
| 2026-05-05 21:15 | -34.01423 | -54.77493 | 2483 ft | 108 kts | 197° |
| 2026-05-05 21:15 | -34.02156 | -54.77693 | 2485 ft | 108 kts | 197° |
| 2026-05-05 21:15 | -34.02891 | -54.77894 | 2488 ft | 108 kts | 197° |
| 2026-05-05 21:16 | -34.03624 | -54.78097 | 2486 ft | 108 kts | 197° |
| 2026-05-05 21:16 | -34.04366 | -54.78299 | 2490 ft | 110 kts | 197° |
| 2026-05-05 21:16 | -34.05121 | -54.78501 | 2489 ft | 112 kts | 197° |
| 2026-05-05 21:16 | -34.05887 | -54.78707 | 2490 ft | 113 kts | 197° |
| 2026-05-05 21:17 | -34.06657 | -54.78914 | 2489 ft | 113 kts | 197° |
| 2026-05-05 21:17 | -34.07423 | -54.79120 | 2490 ft | 112 kts | 197° |
| 2026-05-05 21:17 | -34.08177 | -54.79332 | 2493 ft | 111 kts | 197° |
| 2026-05-05 21:17 | -34.08923 | -54.79555 | 2492 ft | 110 kts | 197° |
| 2026-05-05 21:18 | -34.09688 | -54.79666 | 2492 ft | 112 kts | 188° |
| 2026-05-05 21:18 | -34.10469 | -54.79759 | 2495 ft | 114 kts | 188° |
| 2026-05-05 21:18 | -34.11261 | -54.79854 | 2495 ft | 115 kts | 188° |
| 2026-05-05 21:18 | -34.12055 | -54.79951 | 2490 ft | 114 kts | 188° |
| 2026-05-05 21:19 | -34.12833 | -54.80044 | 2494 ft | 111 kts | 188° |
| 2026-05-05 21:19 | -34.13602 | -54.80133 | 2491 ft | 110 kts | 188° |
| 2026-05-05 21:19 | -34.14359 | -54.80222 | 2494 ft | 109 kts | 188° |
| 2026-05-05 21:19 | -34.15119 | -54.80311 | 2495 ft | 111 kts | 188° |
| 2026-05-05 21:20 | -34.15887 | -54.80402 | 2499 ft | 111 kts | 188° |
| 2026-05-05 21:20 | -34.16656 | -54.80492 | 2494 ft | 111 kts | 188° |
| 2026-05-05 21:20 | -34.17419 | -54.80585 | 2491 ft | 107 kts | 188° |
| 2026-05-05 21:20 | -34.18151 | -54.80675 | 2499 ft | 107 kts | 188° |
| 2026-05-05 21:21 | -34.18902 | -54.80769 | 2498 ft | 110 kts | 188° |
| 2026-05-05 21:21 | -34.19666 | -54.80864 | 2500 ft | 111 kts | 189° |
| 2026-05-05 21:21 | -34.20440 | -54.80941 | 2499 ft | 112 kts | 188° |
| 2026-05-05 21:21 | -34.21215 | -54.81014 | 2502 ft | 112 kts | 188° |
| 2026-05-05 21:22 | -34.21984 | -54.81096 | 2503 ft | 113 kts | 188° |
| 2026-05-05 21:22 | -34.22780 | -54.81183 | 2505 ft | 116 kts | 188° |
| 2026-05-05 21:22 | -34.23594 | -54.81272 | 2509 ft | 116 kts | 188° |
| 2026-05-05 21:22 | -34.24404 | -54.81371 | 2510 ft | 118 kts | 189° |
| 2026-05-05 21:23 | -34.25212 | -54.81470 | 2509 ft | 118 kts | 188° |
| 2026-05-05 21:23 | -34.26013 | -54.81566 | 2507 ft | 115 kts | 188° |
| 2026-05-05 21:23 | -34.26809 | -54.81665 | 2507 ft | 115 kts | 189° |
| 2026-05-05 21:23 | -34.27598 | -54.81757 | 2503 ft | 113 kts | 188° |
| 2026-05-05 21:24 | -34.28381 | -54.81848 | 2505 ft | 113 kts | 189° |
| 2026-05-05 21:24 | -34.29167 | -54.81941 | 2502 ft | 113 kts | 188° |
| 2026-05-05 21:24 | -34.29952 | -54.82037 | 2504 ft | 114 kts | 189° |
| 2026-05-05 21:24 | -34.30738 | -54.82131 | 2503 ft | 113 kts | 188° |
| 2026-05-05 21:25 | -34.31521 | -54.82225 | 2501 ft | 113 kts | 188° |
| 2026-05-05 21:25 | -34.32304 | -54.82329 | 2502 ft | 114 kts | 188° |
| 2026-05-05 21:25 | -34.33098 | -54.82438 | 2507 ft | 116 kts | 188° |
| 2026-05-05 21:25 | -34.33900 | -54.82551 | 2508 ft | 117 kts | 189° |
| 2026-05-05 21:26 | -34.34709 | -54.82658 | 2505 ft | 116 kts | 189° |
| 2026-05-05 21:26 | -34.35509 | -54.82749 | 2503 ft | 114 kts | 188° |
| 2026-05-05 21:26 | -34.36296 | -54.82836 | 2501 ft | 113 kts | 188° |
| 2026-05-05 21:26 | -34.37077 | -54.82923 | 2499 ft | 112 kts | 188° |
| 2026-05-05 21:27 | -34.37851 | -54.83011 | 2501 ft | 111 kts | 188° |
| 2026-05-05 21:27 | -34.38629 | -54.83108 | 2505 ft | 114 kts | 188° |
| 2026-05-05 21:27 | -34.39423 | -54.83219 | 2508 ft | 116 kts | 188° |
| 2026-05-05 21:27 | -34.40227 | -54.83336 | 2503 ft | 117 kts | 189° |
| 2026-05-05 21:28 | -34.41040 | -54.83454 | 2502 ft | 119 kts | 188° |
| 2026-05-05 21:28 | -34.41863 | -54.83572 | 2503 ft | 119 kts | 188° |
| 2026-05-05 21:28 | -34.42674 | -54.83686 | 2503 ft | 116 kts | 189° |
| 2026-05-05 21:28 | -34.43468 | -54.83781 | 2505 ft | 114 kts | 188° |
| 2026-05-05 21:29 | -34.44258 | -54.83877 | 2504 ft | 114 kts | 188° |
| 2026-05-05 21:29 | -34.45050 | -54.83978 | 2503 ft | 115 kts | 189° |
| 2026-05-05 21:29 | -34.45848 | -54.84077 | 2500 ft | 115 kts | 188° |
| 2026-05-05 21:29 | -34.46647 | -54.84179 | 2502 ft | 115 kts | 189° |
| 2026-05-05 21:30 | -34.47440 | -54.84278 | 2501 ft | 114 kts | 189° |
| 2026-05-05 21:30 | -34.48222 | -54.84373 | 2497 ft | 112 kts | 188° |
| 2026-05-05 21:30 | -34.48996 | -54.84474 | 2497 ft | 112 kts | 189° |
| 2026-05-05 21:30 | -34.49767 | -54.84570 | 2494 ft | 111 kts | 188° |
| 2026-05-05 21:31 | -34.50532 | -54.84666 | 2493 ft | 110 kts | 188° |
| 2026-05-05 21:31 | -34.51033 | -54.84731 | 2494 ft | 109 kts | 189° |
| 2026-05-05 21:31 | -34.51791 | -54.84824 | 2492 ft | 110 kts | 188° |
| 2026-05-05 21:31 | -34.52553 | -54.84922 | 2492 ft | 110 kts | 188° |
| 2026-05-05 21:32 | -34.53319 | -54.85022 | 2493 ft | 111 kts | 188° |
| 2026-05-05 21:32 | -34.54086 | -54.85124 | 2493 ft | 111 kts | 189° |
| 2026-05-05 21:32 | -34.54859 | -54.85220 | 2494 ft | 112 kts | 188° |
| 2026-05-05 21:32 | -34.55888 | -54.85347 | 2490 ft | 112 kts | 188° |
| 2026-05-05 21:33 | -34.56408 | -54.85410 | 2494 ft | 111 kts | 188° |
| 2026-05-05 21:33 | -34.57173 | -54.85507 | 2492 ft | 110 kts | 188° |
| 2026-05-05 21:33 | -34.57940 | -54.85604 | 2496 ft | 111 kts | 188° |
| 2026-05-05 21:33 | -34.58714 | -54.85702 | 2494 ft | 112 kts | 189° |
| 2026-05-05 21:34 | -34.59493 | -54.85799 | 2495 ft | 113 kts | 188° |
| 2026-05-05 21:34 | -34.60270 | -54.85897 | 2494 ft | 112 kts | 188° |
| 2026-05-05 21:34 | -34.61042 | -54.85996 | 2497 ft | 111 kts | 188° |
| 2026-05-05 21:34 | -34.61811 | -54.86096 | 2494 ft | 111 kts | 189° |
| 2026-05-05 21:35 | -34.62581 | -54.86191 | 2491 ft | 111 kts | 188° |
| 2026-05-05 21:35 | -34.63179 | -54.86264 | 2496 ft | 111 kts | 188° |
| 2026-05-05 21:35 | -34.63952 | -54.86360 | 2496 ft | 112 kts | 188° |
| 2026-05-05 21:35 | -34.64716 | -54.86458 | 2494 ft | 112 kts | 189° |
| 2026-05-05 21:36 | -34.65492 | -54.86557 | 2491 ft | 112 kts | 189° |
| 2026-05-05 21:36 | -34.66266 | -54.86653 | 2493 ft | 111 kts | 189° |
| 2026-05-05 21:36 | -34.67034 | -54.86747 | 2495 ft | 111 kts | 188° |
| 2026-05-05 21:36 | -34.67800 | -54.86844 | 2497 ft | 111 kts | 188° |
| 2026-05-05 21:37 | -34.68580 | -54.86853 | 2498 ft | 113 kts | 177° |
| 2026-05-05 21:37 | -34.69362 | -54.86728 | 2496 ft | 114 kts | 174° |
| 2026-05-05 21:37 | -34.70144 | -54.86595 | 2492 ft | 113 kts | 174° |
| 2026-05-05 21:37 | -34.70925 | -54.86457 | 2499 ft | 113 kts | 173° |
| 2026-05-05 21:38 | -34.71703 | -54.86321 | 2497 ft | 113 kts | 174° |
| 2026-05-05 21:38 | -34.72479 | -54.86185 | 2498 ft | 111 kts | 174° |
| 2026-05-05 21:38 | -34.73220 | -54.86052 | 2489 ft | 105 kts | 174° |
| 2026-05-05 21:38 | -34.73925 | -54.85926 | 2494 ft | 101 kts | 173° |
| 2026-05-05 21:39 | -34.74628 | -54.85803 | 2492 ft | 103 kts | 173° |
| 2026-05-05 21:39 | -34.75269 | -54.85994 | 2494 ft | 98 kts | 217° |
| 2026-05-05 21:39 | -34.75819 | -54.86480 | 2493 ft | 98 kts | 221° |
| 2026-05-05 21:39 | -34.76374 | -54.86966 | 2499 ft | 98 kts | 220° |
| 2026-05-05 21:40 | -34.76919 | -54.87446 | 2419 ft | 92 kts | 229° |
| 2026-05-05 21:40 | -34.77139 | -54.88102 | 2332 ft | 82 kts | 257° |
| 2026-05-05 21:40 | -34.77308 | -54.88739 | 2251 ft | 80 kts | 257° |
| 2026-05-05 21:40 | -34.77475 | -54.89399 | 2168 ft | 81 kts | 258° |
| 2026-05-05 21:41 | -34.77635 | -54.90046 | 2095 ft | 80 kts | 264° |
| 2026-05-05 21:41 | -34.77695 | -54.90711 | 2018 ft | 78 kts | 272° |
| 2026-05-05 21:41 | -34.77655 | -54.91366 | 1949 ft | 79 kts | 285° |
| 2026-05-05 21:41 | -34.77552 | -54.92042 | 1879 ft | 83 kts | 284° |
| 2026-05-05 21:42 | -34.77471 | -54.92749 | 1810 ft | 87 kts | 265° |
| 2026-05-05 21:42 | -34.77836 | -54.93354 | 1739 ft | 92 kts | 230° |
| 2026-05-05 21:42 | -34.78273 | -54.93927 | 1707 ft | 90 kts | 232° |
| 2026-05-05 21:42 | -34.78629 | -54.94521 | 1699 ft | 85 kts | 237° |
| 2026-05-05 21:43 | -34.78979 | -54.95094 | 1701 ft | 86 kts | 237° |
| 2026-05-05 21:43 | -34.79342 | -54.95696 | 1706 ft | 90 kts | 237° |
| 2026-05-05 21:43 | -34.79716 | -54.96322 | 1712 ft | 93 kts | 237° |
| 2026-05-05 21:43 | -34.80077 | -54.96980 | 1706 ft | 93 kts | 241° |
| 2026-05-05 21:44 | -34.80411 | -54.97654 | 1705 ft | 93 kts | 245° |
| 2026-05-05 21:44 | -34.80713 | -54.98350 | 1709 ft | 93 kts | 245° |
| 2026-05-05 21:44 | -34.81015 | -54.99051 | 1715 ft | 94 kts | 246° |
| 2026-05-05 21:44 | -34.81304 | -54.99752 | 1706 ft | 90 kts | 246° |
| 2026-05-05 21:45 | -34.81585 | -55.00416 | 1657 ft | 87 kts | 246° |
| 2026-05-05 21:45 | -34.81855 | -55.01056 | 1597 ft | 83 kts | 246° |
| 2026-05-05 21:45 | -34.82114 | -55.01672 | 1540 ft | 81 kts | 246° |
| 2026-05-05 21:45 | -34.82367 | -55.02282 | 1483 ft | 83 kts | 246° |
| 2026-05-05 21:46 | -34.82638 | -55.02939 | 1376 ft | 90 kts | 246° |
| 2026-05-05 21:46 | -34.82915 | -55.03630 | 1264 ft | 92 kts | 246° |
| 2026-05-05 21:46 | -34.83198 | -55.04325 | 1139 ft | 93 kts | 240° |
| 2026-05-05 21:46 | -34.83588 | -55.04957 | 1073 ft | 93 kts | 231° |
| 2026-05-05 21:47 | -34.83969 | -55.05547 | 948 ft | 87 kts | 232° |
| 2026-05-05 21:47 | -34.84313 | -55.06117 | 791 ft | 81 kts | 235° |
| 2026-05-05 21:47 | -34.84625 | -55.06678 | 659 ft | 75 kts | 237° |
| 2026-05-05 21:47 | -34.84885 | -55.07252 | 567 ft | 79 kts | 243° |
| 2026-05-05 21:48 | -34.85083 | -55.07858 | 413 ft | 72 kts | 249° |
| 2026-05-05 21:48 | -34.85250 | -55.08434 | 280 ft | 73 kts | 251° |
| 2026-05-05 21:48 | -34.85413 | -55.09043 | 143 ft | 76 kts | 251° |
| 2026-05-05 21:48 | -34.85572 | -55.09604 | 106 ft | 59 kts | 251° |
| 2026-05-05 21:49 | -34.85668 | -55.09966 | 96 ft | 27 kts | 253° |
| 2026-05-05 21:49 | -34.85702 | -55.10044 | 96 ft | 2 kts | 76° |
| 2026-05-05 21:49 | -34.85670 | -55.09977 | 96 ft | 17 kts | 66° |
| 2026-05-05 21:49 | -34.85611 | -55.09783 | 97 ft | 31 kts | 71° |
| 2026-05-05 21:50 | -34.85536 | -55.09505 | 97 ft | 24 kts | 72° |
| 2026-05-05 21:50 | -34.85566 | -55.09399 | 98 ft | 19 kts | 177° |
| 2026-05-05 21:50 | -34.85766 | -55.09387 | 97 ft | 38 kts | 179° |
| 2026-05-05 21:50 | -34.86035 | -55.09378 | 95 ft | 37 kts | 177° |
| 2026-05-05 21:51 | -34.86279 | -55.09371 | 95 ft | 33 kts | 178° |
| 2026-05-05 21:51 | -34.86421 | -55.09391 | 95 ft | 14 kts | 263° |
| 2026-05-05 21:51 | -34.86388 | -55.09482 | 95 ft | 12 kts | 296° |
| 2026-05-05 21:51 | -34.86372 | -55.09564 | 95 ft | 8 kts | 288° |
| 2026-05-05 21:52 | -34.86328 | -55.09648 | 95 ft | 0 kts | 21° |